Overview Statistics Trail Chart Weather Telemetry Raw packets
 

This is the latest recevied weather packets stored in our database for station/object W2SBL-1. If no packets are shown the sender has not sent any weather packets the latest 10 day(s).

<< 19 20 21 22 23 24 25 >>
Time Temp. Humidity Pressure Rain* Wind** Luminosity Snow
1787946166 32.22° C 55% 1014.9 hPa - - - -
1787945266 32.22° C 55% 1015.1 hPa - - - -
1787944366 31.11° C 57% 1015.1 hPa - - - -
1787943466 31.67° C 57% 1015.2 hPa - - - -
1787942566 31.11° C 57% 1015.2 hPa - - - -
1787941666 31.67° C 57% 1015.2 hPa - - - -
1787940766 31.67° C 57% 1015.2 hPa - - - -
1787939866 32.22° C 56% 1015.2 hPa - - - -
1787938966 32.78° C 55% 1015.1 hPa - - - -
1787938065 33.89° C 53% 1015 hPa - - - -
1787937165 33.89° C 53% 1015.1 hPa - - - -
1787936265 34.44° C 52% 1015.1 hPa - - - -
1787935365 35.56° C 49% 1015.1 hPa - - - -
1787934465 34.44° C 50% 1015.2 hPa - - - -
1787933565 34.44° C 49% 1015.4 hPa - - - -
1787932665 33.33° C 51% 1015.2 hPa - - - -
1787931775 33.89° C 49% 1015.4 hPa - - - -
1787930865 33.89° C 49% 1015.5 hPa - - - -
1787929965 31.67° C 51% 1015.7 hPa - - - -
1787929065 30° C 54% 1015.7 hPa - - - -
1787928165 29.44° C 54% 1015.8 hPa - - - -
1787927264 29.44° C 54% 1015.7 hPa - - - -
1787926364 28.89° C 54% 1015.4 hPa - - - -
1787925464 28.89° C 54% 1015.4 hPa - - - -
1787923664 28.33° C 55% 1015.3 hPa - - - -

* Rain since midnight (hover to see other rain measurements)
** Current wind speed in m/s (hover to see current wind gust speed)